Weather at Tanner Hiller Airport

Public forecast

Using degrees Fahrenheit for public forecast. Weather courtesy of forecast.io.

Closest aviation weather report (METAR) to Tanner Hiller Airport

Closest report is Worcester Regional Airport, 12.5 nm (23.1 km) ESE. Retrieved 2020/09/26 08:26 UTC (20 minutes ago):

KORH 260826Z AUTO 23006KT 1/4SM R11/1200V1600FT FG VV001 12/12 A3013

Closest aviation forecast (TAF) to Tanner Hiller Airport

Closest forecast is Worcester Regional Airport, 12.5 nm (23.1 km) ESE. Retrieved 2020/09/26 06:40 UTC (2 hours ago):

TAF KORH 260538Z 2606/2706 24007KT P6SM SKC FM260800 24004KT 3/4SM BR BKN003 FM261000 24003KT 1/4SM FG BKN003 FM261200 23004KT P6SM SCT200 FM262100 20007KT P6SM BKN040